Time;durP1;ratioP1;P1;durP2;ratioP2;P2;SDS_P1;SDS_P2;PMS_P1;PMS_P2;Temp;Humidity;BMP_temperature;BMP_pressure;BME280_temperature;BME280_humidity;BME280_pressure;Samples;Min_cycle;Max_cycle;Signal;HPM_P1;HPM_P2
2022/08/27 00:03:54;;;;;;;3.13;1.35;;;25.00;58.10;;;;;;10533041;28;20032;-49
2022/08/27 00:08:54;;;;;;;2.33;1.00;;;25.00;58.10;;;;;;10533758;28;20376;-50
2022/08/27 00:13:55;;;;;;;2.22;0.95;;;25.00;58.10;;;;;;10532819;28;20032;-50
2022/08/27 00:18:56;;;;;;;1.77;1.10;;;25.00;58.10;;;;;;10532541;28;20028;-51
2022/08/27 00:23:57;;;;;;;1.80;1.10;;;25.00;58.10;;;;;;10532004;28;20032;-50
2022/08/27 00:28:58;;;;;;;2.33;1.25;;;25.00;58.00;;;;;;10512484;28;20606;-51
2022/08/27 00:33:58;;;;;;;2.35;1.15;;;25.00;58.00;;;;;;10505130;28;20041;-49
2022/08/27 00:38:59;;;;;;;1.77;1.17;;;24.90;57.90;;;;;;10531041;28;20571;-49
2022/08/27 00:44:01;;;;;;;2.15;0.98;;;24.90;57.90;;;;;;10531222;28;20043;-49
2022/08/27 00:49:19;;;;;;;2.30;1.10;;;25.00;57.90;;;;;;10530582;28;20449;-49
2022/08/27 00:54:21;;;;;;;4.53;1.25;;;24.90;57.70;;;;;;10513304;28;20440;-48
2022/08/27 00:59:28;;;;;;;1.55;1.05;;;24.90;57.80;;;;;;10512543;28;20230;-49
2022/08/27 01:04:31;;;;;;;1.52;1.08;;;24.90;57.70;;;;;;10513017;28;20034;-47
2022/08/27 01:09:32;;;;;;;1.52;1.05;;;24.90;57.80;;;;;;10512519;28;20075;-47
2022/08/27 01:14:34;;;;;;;2.00;1.27;;;24.90;57.80;;;;;;10495190;28;20028;-50
2022/08/27 01:20:00;;;;;;;1.60;1.20;;;24.90;57.70;;;;;;10512282;28;20429;-50
2022/08/27 01:25:08;;;;;;;1.80;1.17;;;24.90;57.70;;;;;;10513940;28;20493;-48
2022/08/27 01:30:15;;;;;;;1.65;1.15;;;24.90;57.70;;;;;;10500663;28;20407;-50
2022/08/27 01:35:17;;;;;;;1.52;1.27;;;24.80;57.60;;;;;;10495894;28;20031;-50
2022/08/27 01:40:19;;;;;;;2.88;1.30;;;24.80;57.60;;;;;;10529367;28;20051;-49
2022/08/27 01:45:27;;;;;;;1.58;0.88;;;24.80;57.60;;;;;;10530142;28;20387;-50
2022/08/27 01:50:34;;;;;;;2.13;1.03;;;24.80;57.50;;;;;;10529416;28;20077;-50
2022/08/27 01:55:36;;;;;;;2.30;1.35;;;24.80;57.50;;;;;;10529257;28;20032;-47
2022/08/27 02:00:41;;;;;;;2.67;1.00;;;24.80;57.50;;;;;;10513978;28;20586;-50
2022/08/27 02:05:42;;;;;;;3.53;1.73;;;24.80;57.50;;;;;;10520219;28;20388;-50
2022/08/27 02:10:46;;;;;;;2.13;1.17;;;24.80;57.40;;;;;;10502740;28;20028;-50
2022/08/27 02:15:46;;;;;;;2.08;1.23;;;24.80;57.50;;;;;;10537079;28;20110;-49
2022/08/27 02:20:47;;;;;;;3.08;1.67;;;24.80;57.50;;;;;;10536638;28;20127;-51
2022/08/27 02:25:48;;;;;;;2.28;1.00;;;24.80;57.40;;;;;;10536453;28;20487;-50
2022/08/27 02:30:48;;;;;;;1.90;1.25;;;24.80;57.40;;;;;;10502079;28;20111;-50
2022/08/27 02:35:49;;;;;;;2.03;1.08;;;24.80;57.40;;;;;;10507232;28;20028;-51
2022/08/27 02:40:50;;;;;;;2.80;1.73;;;24.80;57.40;;;;;;10536439;28;20530;-50
2022/08/27 02:45:51;;;;;;;2.83;1.90;;;24.70;57.40;;;;;;10536163;28;20028;-51
2022/08/27 02:50:53;;;;;;;2.53;1.38;;;24.70;57.30;;;;;;10518219;28;20100;-51
2022/08/27 02:55:54;;;;;;;2.15;1.20;;;24.70;57.30;;;;;;10535831;28;20499;-49
2022/08/27 03:00:55;;;;;;;2.72;1.13;;;24.70;57.40;;;;;;10535667;28;20020;-50
2022/08/27 03:05:57;;;;;;;2.58;1.63;;;24.70;57.30;;;;;;10534893;28;20546;-51
2022/08/27 03:10:58;;;;;;;1.75;1.17;;;24.70;57.30;;;;;;10534791;28;20055;-50
2022/08/27 03:16:00;;;;;;;1.35;1.15;;;24.70;57.30;;;;;;10535172;28;20039;-48
2022/08/27 03:21:02;;;;;;;1.55;1.23;;;24.70;57.30;;;;;;10516169;28;20027;-50
2022/08/27 03:26:09;;;;;;;2.63;1.27;;;24.70;57.30;;;;;;10535013;28;20030;-51
2022/08/27 03:31:25;;;;;;;3.03;1.55;;;24.70;57.40;;;;;;10479128;28;20028;-50
2022/08/27 03:36:28;;;;;;;2.28;1.20;;;24.60;57.30;;;;;;10529456;28;20131;-50
2022/08/27 03:41:29;;;;;;;1.98;1.52;;;24.70;57.40;;;;;;10515601;28;20054;-49
2022/08/27 03:46:30;;;;;;;3.55;1.10;;;24.60;57.30;;;;;;10533432;28;20028;-49
2022/08/27 03:51:30;;;;;;;3.30;1.98;;;24.60;57.30;;;;;;10533545;28;20388;-51
2022/08/27 03:56:37;;;;;;;2.90;1.70;;;24.60;57.30;;;;;;10533862;28;20043;-50
2022/08/27 04:01:38;;;;;;;2.72;1.63;;;24.60;57.30;;;;;;10534151;28;20042;-50
2022/08/27 04:06:39;;;;;;;2.17;1.40;;;24.60;57.30;;;;;;10515435;28;20024;-49
2022/08/27 04:11:40;;;;;;;2.33;1.40;;;24.60;57.20;;;;;;10532903;28;20031;-51
2022/08/27 04:16:42;;;;;;;2.80;1.20;;;24.60;57.20;;;;;;10533254;28;20028;-50
2022/08/27 04:21:43;;;;;;;2.60;1.73;;;24.60;57.30;;;;;;10532609;28;20107;-48
2022/08/27 04:26:46;;;;;;;2.20;1.33;;;24.60;57.20;;;;;;10532765;28;20421;-47
2022/08/27 04:31:47;;;;;;;3.38;1.85;;;24.60;57.20;;;;;;10491151;28;20032;-50
2022/08/27 04:36:49;;;;;;;2.60;1.52;;;24.60;57.90;;;;;;10528684;28;20557;-50
2022/08/27 04:41:51;;;;;;;2.47;1.42;;;24.60;57.20;;;;;;10528392;28;20344;-49
2022/08/27 04:46:59;;;;;;;2.30;1.20;;;24.50;57.20;;;;;;10531949;28;20032;-48
2022/08/27 04:52:00;;;;;;;2.88;1.52;;;24.50;57.20;;;;;;10533296;28;20036;-47
2022/08/27 04:57:03;;;;;;;3.05;1.27;;;24.50;57.10;;;;;;10532912;28;20028;-50
2022/08/27 05:02:08;;;;;;;4.63;1.90;;;24.50;57.10;;;;;;10532722;28;20077;-51
2022/08/27 05:07:09;;;;;;;9.25;3.10;;;24.50;57.10;;;;;;10532827;28;20051;-51
2022/08/27 05:12:10;;;;;;;8.73;2.08;;;24.50;57.00;;;;;;10514272;28;20051;-49
2022/08/27 05:17:11;;;;;;;7.18;2.88;;;24.50;57.00;;;;;;10532087;28;20031;-50
2022/08/27 05:22:12;;;;;;;4.47;2.03;;;24.50;57.00;;;;;;10532323;28;20612;-51
2022/08/27 05:27:12;;;;;;;3.13;1.77;;;24.50;56.90;;;;;;10527616;28;20064;-51
2022/08/27 05:32:13;;;;;;;3.05;1.60;;;24.50;56.90;;;;;;10490381;28;20458;-50
2022/08/27 05:37:14;;;;;;;3.60;2.08;;;24.50;56.90;;;;;;10531034;28;20532;-50
2022/08/27 05:42:14;;;;;;;4.95;2.03;;;24.50;57.00;;;;;;10531688;28;20127;-49
2022/08/27 05:47:15;;;;;;;4.15;1.90;;;24.50;57.00;;;;;;10531146;28;20678;-50
2022/08/27 05:52:16;;;;;;;4.90;2.30;;;24.50;57.10;;;;;;10531417;28;20457;-49
2022/08/27 05:57:17;;;;;;;5.10;2.47;;;24.40;57.10;;;;;;10513034;28;20376;-48
2022/08/27 06:02:19;;;;;;;5.53;2.60;;;24.40;57.20;;;;;;10512993;28;20084;-50
2022/08/27 06:07:20;;;;;;;11.95;2.50;;;24.40;57.20;;;;;;10531515;28;20081;-49
2022/08/27 06:12:20;;;;;;;3.13;1.45;;;24.40;57.20;;;;;;10512960;28;20054;-50
2022/08/27 06:17:21;;;;;;;3.28;1.80;;;24.40;57.30;;;;;;10512938;28;20042;-51
2022/08/27 06:22:22;;;;;;;4.15;2.70;;;24.40;57.20;;;;;;10530895;28;20110;-51
2022/08/27 06:27:23;;;;;;;5.32;1.83;;;24.40;57.20;;;;;;10506820;28;20025;-50
2022/08/27 06:32:24;;;;;;;4.25;1.85;;;24.40;57.40;;;;;;10490991;28;20028;-49
2022/08/27 06:37:26;;;;;;;2.70;1.90;;;24.50;57.50;;;;;;10530222;28;20131;-53
2022/08/27 06:42:26;;;;;;;2.40;1.92;;;24.50;57.50;;;;;;10530212;28;20111;-50
2022/08/27 06:47:30;;;;;;;5.13;2.15;;;24.40;57.40;;;;;;10534552;28;20095;-57
2022/08/27 06:52:31;;;;;;;5.18;1.98;;;24.40;57.30;;;;;;10519575;28;20497;-52
2022/08/27 06:57:32;;;;;;;4.03;2.08;;;24.40;57.50;;;;;;10537890;28;20024;-53
2022/08/27 07:02:32;;;;;;;3.35;1.70;;;24.40;57.70;;;;;;10537068;28;20036;-51
2022/08/27 07:07:33;;;;;;;1.52;1.10;;;24.40;57.60;;;;;;10537616;28;20032;-52
2022/08/27 07:12:34;;;;;;;2.40;1.60;;;24.40;57.60;;;;;;10537096;28;20024;-51
2022/08/27 07:17:35;;;;;;;3.25;2.00;;;24.40;57.80;;;;;;10519126;28;20103;-53
2022/08/27 07:22:39;;;;;;;2.83;1.98;;;24.40;57.80;;;;;;10537072;28;20032;-51
2022/08/27 07:27:40;;;;;;;2.85;1.48;;;24.40;57.90;;;;;;10528367;28;20029;-52
2022/08/27 07:32:45;;;;;;;3.63;1.67;;;24.40;57.90;;;;;;10498898;28;20043;-50
2022/08/27 07:37:46;;;;;;;4.50;2.05;;;24.40;58.00;;;;;;10517461;28;20043;-53
2022/08/27 07:48:06;;;;;;;2.42;1.30;;;24.40;58.00;;;;;;10520161;28;20028;-51
2022/08/27 07:53:07;;;;;;;3.55;2.40;;;24.40;58.10;;;;;;10517902;28;20119;-52
2022/08/27 07:58:07;;;;;;;2.30;1.33;;;24.40;58.20;;;;;;10517066;28;20483;-52
2022/08/27 08:03:10;;;;;;;4.05;2.28;;;24.40;58.20;;;;;;10534879;28;20027;-50
2022/08/27 08:08:11;;;;;;;3.40;1.50;;;24.40;57.40;;;;;;10517230;28;20071;-50
2022/08/27 08:13:11;;;;;;;2.55;1.35;;;24.40;57.20;;;;;;10535482;28;20130;-50
2022/08/27 08:18:13;;;;;;;3.58;1.73;;;24.40;57.30;;;;;;10534405;28;20040;-52
2022/08/27 08:23:14;;;;;;;2.05;1.70;;;24.40;57.30;;;;;;10516171;28;20527;-53
2022/08/27 08:28:14;;;;;;;2.65;1.80;;;24.40;57.30;;;;;;10521095;28;20111;-53
2022/08/27 08:33:16;;;;;;;2.75;1.77;;;24.40;57.10;;;;;;10483317;28;20103;-53
2022/08/27 08:38:18;;;;;;;2.80;1.48;;;24.50;57.30;;;;;;10515440;28;20040;-52
2022/08/27 08:43:45;;;;;;;3.35;1.92;;;24.50;57.20;;;;;;10515819;28;20052;-53
2022/08/27 08:48:51;;;;;;;4.63;1.55;;;24.50;57.10;;;;;;10533270;28;20078;-51
2022/08/27 08:54:00;;;;;;;2.35;1.77;;;24.50;56.90;;;;;;10533539;28;20042;-53
2022/08/27 08:59:13;;;;;;;3.20;1.40;;;24.50;56.90;;;;;;10515215;28;20032;-53
2022/08/27 09:04:14;;;;;;;2.97;1.65;;;24.50;56.90;;;;;;10515685;28;20087;-52
2022/08/27 09:09:33;;;;;;;2.60;1.92;;;24.60;57.00;;;;;;10532422;28;20161;-51
2022/08/27 09:14:51;;;;;;;2.55;1.65;;;24.60;57.10;;;;;;10513926;28;20080;-52
2022/08/27 09:19:51;;;;;;;3.85;1.70;;;24.60;57.10;;;;;;10514695;28;20115;-51
2022/08/27 09:25:19;;;;;;;3.08;1.50;;;24.60;57.10;;;;;;10514227;28;20020;-53
2022/08/27 09:30:25;;;;;;;2.50;1.60;;;24.60;57.20;;;;;;10484110;28;20058;-53
2022/08/27 09:35:33;;;;;;;1.60;1.27;;;24.60;57.20;;;;;;10517469;28;20062;-52
2022/08/27 09:40:44;;;;;;;2.72;1.65;;;24.50;56.80;;;;;;10531327;28;20133;-52
2022/08/27 09:45:53;;;;;;;2.47;1.40;;;24.60;57.10;;;;;;10531798;28;20098;-53
2022/08/27 09:51:07;;;;;;;1.85;1.20;;;24.60;56.90;;;;;;10531340;28;20042;-52
2022/08/27 09:56:19;;;;;;;2.45;1.52;;;24.50;57.00;;;;;;10513438;28;20051;-52
2022/08/27 10:01:24;;;;;;;1.70;1.00;;;24.50;56.70;;;;;;10514612;28;20029;-52
2022/08/27 10:06:30;;;;;;;2.42;1.50;;;24.50;57.00;;;;;;10531034;28;20486;-51
2022/08/27 10:11:43;;;;;;;1.88;1.20;;;24.50;57.30;;;;;;10530989;28;20028;-51
2022/08/27 10:17:05;;;;;;;2.60;1.20;;;24.50;57.40;;;;;;10513266;28;20036;-54
2022/08/27 10:22:36;;;;;;;1.88;1.20;;;24.60;57.30;;;;;;10518370;28;20637;-51
2022/08/27 10:28:28;;;;;;;2.17;1.50;;;24.60;56.90;;;;;;10514541;28;20490;-50
2022/08/27 10:34:17;;;;;;;2.17;1.20;;;24.60;57.20;;;;;;10507728;28;20132;-53
2022/08/27 10:39:56;;;;;;;2.63;1.40;;;24.60;57.20;;;;;;10519343;28;20039;-53
2022/08/27 10:45:03;;;;;;;2.38;1.45;;;24.60;57.10;;;;;;10503617;28;20490;-50
2022/08/27 10:50:44;;;;;;;2.97;1.42;;;24.60;57.10;;;;;;10538020;28;20479;-51
2022/08/27 10:55:52;;;;;;;1.77;1.17;;;24.60;57.40;;;;;;10537739;28;20070;-53
2022/08/27 11:01:01;;;;;;;1.33;1.17;;;24.60;57.50;;;;;;10520615;28;20497;-52
2022/08/27 11:06:31;;;;;;;2.92;1.30;;;24.60;57.40;;;;;;10537454;28;20020;-52
2022/08/27 11:11:59;;;;;;;3.75;1.70;;;24.50;57.40;;;;;;10536871;28;20036;-53
2022/08/27 11:17:10;;;;;;;1.90;1.08;;;24.50;57.40;;;;;;10537309;28;20028;-53
2022/08/27 11:22:43;;;;;;;1.65;1.20;;;24.50;57.20;;;;;;10519610;28;20028;-52
2022/08/27 11:27:47;;;;;;;2.15;1.38;;;24.50;57.50;;;;;;10493918;28;20036;-52
2022/08/27 11:33:50;;;;;;;2.70;1.00;;;24.50;57.50;;;;;;10481684;28;20035;-52
2022/08/27 11:39:22;;;;;;;2.30;1.40;;;24.50;57.70;;;;;;10506676;28;20117;-54
2022/08/27 11:44:25;;;;;;;2.88;1.10;;;24.50;57.80;;;;;;10535932;28;20028;-52
2022/08/27 11:49:34;;;;;;;1.55;1.17;;;24.50;57.70;;;;;;10517833;28;20430;-51
2022/08/27 11:54:55;;;;;;;;;;;24.50;57.90;;;;;;10535839;28;20042;-53
2022/08/27 11:59:56;;;;;;;1.75;1.15;;;24.50;57.80;;;;;;10535370;28;19918;-52
2022/08/27 12:05:36;;;;;;;2.63;1.80;;;24.50;57.70;;;;;;10534932;28;20429;-53
2022/08/27 12:10:57;;;;;;;2.28;1.25;;;24.50;57.90;;;;;;10529588;28;20071;-53
2022/08/27 12:16:15;;;;;;;1.92;1.20;;;24.50;57.70;;;;;;10516266;28;20036;-51
2022/08/27 12:22:15;;;;;;;1.27;1.17;;;24.50;57.70;;;;;;10535017;28;20031;-53
2022/08/27 12:27:23;;;;;;;3.20;1.05;;;24.50;58.00;;;;;;10440374;28;20588;-52
2022/08/27 12:32:35;;;;;;;1.45;1.25;;;24.50;57.90;;;;;;10479206;28;20043;-52
2022/08/27 12:37:49;;;;;;;3.20;1.50;;;24.50;57.90;;;;;;10515610;28;20140;-52
2022/08/27 12:43:12;;;;;;;1.55;1.00;;;24.50;57.90;;;;;;10515726;28;20107;-52
2022/08/27 12:48:19;;;;;;;1.85;1.40;;;24.50;57.70;;;;;;10533234;28;20024;-52
2022/08/27 12:53:49;;;;;;;2.25;1.30;;;24.50;57.60;;;;;;10498796;28;20475;-50
2022/08/27 12:59:29;;;;;;;1.73;1.13;;;24.50;57.50;;;;;;10532943;28;20181;-53
2022/08/27 13:04:32;;;;;;;1.73;1.00;;;24.50;57.90;;;;;;10518675;28;20062;-52
2022/08/27 13:09:37;;;;;;;1.60;1.02;;;24.50;57.90;;;;;;10533025;28;20539;-52
2022/08/27 13:14:40;;;;;;;2.42;1.13;;;24.50;57.40;;;;;;10532558;28;20055;-52
2022/08/27 13:19:59;;;;;;;2.28;1.25;;;24.50;57.50;;;;;;10532236;28;20024;-52
2022/08/27 13:25:00;;;;;;;2.53;1.63;;;24.50;57.90;;;;;;10532076;28;20531;-52
2022/08/27 13:30:08;;;;;;;3.53;1.23;;;24.50;57.50;;;;;;10503930;28;20086;-53
2022/08/27 13:35:10;;;;;;;2.42;1.67;;;24.50;57.80;;;;;;10514858;28;20460;-52
2022/08/27 13:41:01;;;;;;;1.40;0.98;;;24.50;57.70;;;;;;10513403;28;20422;-54
2022/08/27 13:46:11;;;;;;;2.28;1.40;;;24.50;57.70;;;;;;10514996;28;20036;-51
2022/08/27 13:51:13;;;;;;;3.05;1.40;;;24.50;57.50;;;;;;10531557;28;20039;-53
2022/08/27 13:56:35;;;;;;;2.08;1.10;;;24.50;57.30;;;;;;10517980;28;20399;-51
2022/08/27 14:01:36;;;;;;;1.90;1.30;;;24.40;57.90;;;;;;10521828;28;20133;-53
2022/08/27 14:06:45;;;;;;;1.67;1.13;;;24.40;57.20;;;;;;10521378;28;20020;-52
2022/08/27 14:11:46;;;;;;;1.60;1.10;;;24.50;57.90;;;;;;10539193;28;20051;-52
2022/08/27 14:16:58;;;;;;;1.95;1.17;;;24.40;57.70;;;;;;10520699;28;20479;-52
2022/08/27 14:22:00;;;;;;;2.50;1.33;;;24.40;57.80;;;;;;10538766;28;20094;-53
2022/08/27 14:27:11;;;;;;;2.40;1.20;;;24.40;57.50;;;;;;10518099;28;20024;-51
2022/08/27 14:32:11;;;;;;;1.90;1.10;;;24.40;57.70;;;;;;10497284;28;20040;-50
2022/08/27 14:37:14;;;;;;;1.88;1.25;;;24.40;58.00;;;;;;10538126;28;20516;-52
2022/08/27 14:42:16;;;;;;;1.83;1.33;;;24.40;57.90;;;;;;10538970;28;20032;-52
2022/08/27 14:47:17;;;;;;;1.83;0.98;;;24.40;57.90;;;;;;10520168;28;20032;-52
2022/08/27 14:52:17;;;;;;;2.22;1.42;;;24.40;57.70;;;;;;10537609;28;20390;-52
2022/08/27 14:57:18;;;;;;;1.40;0.82;;;24.40;58.00;;;;;;10537751;28;20036;-54
2022/08/27 15:02:20;;;;;;;2.35;1.33;;;24.40;58.10;;;;;;10519512;28;20432;-53
2022/08/27 15:07:20;;;;;;;1.50;1.35;;;24.40;58.00;;;;;;10536618;28;20028;-53
2022/08/27 15:12:21;;;;;;;1.98;1.42;;;24.40;58.00;;;;;;10537050;28;20081;-53
2022/08/27 15:17:22;;;;;;;1.77;1.05;;;24.40;58.00;;;;;;10536744;28;20046;-52
2022/08/27 15:22:30;;;;;;;1.45;1.25;;;24.40;58.10;;;;;;10518366;28;20430;-52
2022/08/27 15:27:32;;;;;;;1.25;1.08;;;24.40;58.10;;;;;;10512467;28;20048;-52
2022/08/27 15:32:41;;;;;;;2.38;1.30;;;24.40;58.00;;;;;;10480159;28;20353;-50
2022/08/27 15:37:43;;;;;;;1.15;0.80;;;24.40;57.90;;;;;;10536026;28;20138;-53
2022/08/27 15:42:47;;;;;;;1.60;0.82;;;24.40;57.90;;;;;;10536543;28;20402;-51
2022/08/27 15:47:48;;;;;;;2.90;1.10;;;24.40;58.00;;;;;;10518899;28;20028;-50
2022/08/27 15:52:55;;;;;;;2.10;1.23;;;24.40;58.00;;;;;;10535641;28;20081;-53
2022/08/27 15:57:56;;;;;;;1.00;0.80;;;24.40;58.00;;;;;;10517798;28;20024;-53
2022/08/27 16:02:57;;;;;;;1.48;0.80;;;24.40;57.90;;;;;;10535076;28;20432;-53
2022/08/27 16:07:57;;;;;;;1.77;1.17;;;24.40;57.90;;;;;;10535277;28;20031;-51
2022/08/27 16:12:58;;;;;;;3.47;1.00;;;24.40;58.00;;;;;;10516361;28;20080;-52
2022/08/27 16:18:03;;;;;;;1.88;1.00;;;24.40;58.00;;;;;;10533197;28;20028;-51
2022/08/27 16:23:03;;;;;;;1.75;1.20;;;24.40;58.00;;;;;;10534019;28;20024;-51
2022/08/27 16:28:04;;;;;;;1.58;1.10;;;24.40;57.90;;;;;;10487702;28;20058;-53
2022/08/27 16:33:05;;;;;;;1.75;1.20;;;24.40;57.90;;;;;;10499998;28;20107;-50
2022/08/27 16:38:06;;;;;;;1.85;1.10;;;24.40;57.90;;;;;;10533344;28;20041;-50
2022/08/27 16:43:06;;;;;;;1.60;0.93;;;24.40;57.90;;;;;;10515278;28;20016;-52
2022/08/27 16:53:27;;;;;;;1.90;1.10;;;24.40;57.80;;;;;;10517964;28;20036;-53
2022/08/27 16:58:30;;;;;;;2.30;1.00;;;24.40;57.80;;;;;;10533455;28;20036;-51
2022/08/27 17:03:36;;;;;;;1.52;1.10;;;24.40;57.80;;;;;;10532539;28;20494;-53
2022/08/27 17:08:37;;;;;;;2.95;1.20;;;24.40;57.80;;;;;;10515044;28;20031;-52
2022/08/27 17:13:38;;;;;;;2.45;1.30;;;24.40;57.70;;;;;;10532486;28;20132;-50
2022/08/27 17:18:40;;;;;;;1.33;0.90;;;24.40;57.70;;;;;;10514291;28;20028;-53
2022/08/27 17:23:50;;;;;;;1.67;1.00;;;24.40;57.60;;;;;;10532304;28;20027;-52
2022/08/27 17:28:51;;;;;;;1.92;1.10;;;24.40;57.70;;;;;;10531401;28;20024;-53
2022/08/27 17:33:52;;;;;;;2.00;0.90;;;24.40;57.70;;;;;;10532159;28;20579;-53
2022/08/27 17:38:53;;;;;;;2.35;1.00;;;24.40;57.60;;;;;;10513369;28;20055;-53
2022/08/27 17:44:03;;;;;;;2.53;1.35;;;24.40;57.50;;;;;;10531582;28;20044;-53
2022/08/27 17:49:04;;;;;;;1.42;1.23;;;24.30;57.50;;;;;;10514001;28;20035;-51
2022/08/27 17:54:07;;;;;;;1.50;1.00;;;24.30;57.50;;;;;;10512641;28;20483;-52
2022/08/27 17:59:08;;;;;;;3.75;1.30;;;24.40;57.60;;;;;;10531543;28;20081;-50
2022/08/27 18:04:09;;;;;;;2.38;1.15;;;24.30;57.50;;;;;;10531119;28;20021;-51
2022/08/27 18:09:09;;;;;;;1.83;1.00;;;24.30;57.50;;;;;;10513315;28;20035;-53
2022/08/27 18:14:11;;;;;;;1.65;1.30;;;24.30;57.40;;;;;;10513401;28;20020;-52
2022/08/27 18:19:12;;;;;;;1.33;0.90;;;24.30;57.50;;;;;;10530603;28;20112;-53
2022/08/27 18:24:14;;;;;;;1.20;1.08;;;24.30;57.50;;;;;;10530742;28;20047;-52
2022/08/27 18:29:15;;;;;;;2.13;0.90;;;24.30;57.50;;;;;;10509788;28;20464;-52
2022/08/27 18:34:16;;;;;;;1.50;1.17;;;24.30;57.50;;;;;;10488852;28;20028;-53
2022/08/27 18:39:16;;;;;;;1.52;1.20;;;24.30;57.50;;;;;;10512600;28;20044;-52
2022/08/27 18:44:17;;;;;;;1.58;0.82;;;24.30;57.50;;;;;;10536244;28;20644;-51
2022/08/27 18:49:20;;;;;;;1.95;0.95;;;24.30;57.50;;;;;;10538201;28;20092;-53
2022/08/27 18:54:23;;;;;;;1.85;1.23;;;24.30;57.50;;;;;;10538282;28;20107;-52
2022/08/27 18:59:24;;;;;;;2.25;1.20;;;24.30;57.60;;;;;;10537255;28;20032;-50
2022/08/27 19:04:27;;;;;;;2.08;1.60;;;24.30;57.60;;;;;;10537386;28;20024;-51
2022/08/27 19:09:27;;;;;;;1.35;0.77;;;24.30;57.60;;;;;;10538185;28;20040;-52
2022/08/27 19:14:28;;;;;;;1.33;0.82;;;24.30;57.60;;;;;;10535982;28;20024;-50
2022/08/27 19:19:30;;;;;;;1.10;0.90;;;24.30;57.60;;;;;;10534950;28;20028;-54
2022/08/27 19:24:31;;;;;;;1.40;1.08;;;24.30;57.60;;;;;;10535262;28;20028;-52
2022/08/27 19:29:31;;;;;;;1.58;1.00;;;24.30;57.60;;;;;;10509962;28;20028;-51
2022/08/27 19:34:32;;;;;;;1.40;1.00;;;24.30;57.60;;;;;;10512848;28;20032;-51
2022/08/27 19:39:36;;;;;;;1.65;1.05;;;24.30;57.60;;;;;;10534441;28;20055;-51
2022/08/27 19:44:36;;;;;;;1.90;1.17;;;24.30;57.60;;;;;;10534846;28;20051;-50
2022/08/27 19:49:39;;;;;;;2.38;0.90;;;24.30;57.60;;;;;;10515809;28;20024;-50
2022/08/27 19:54:39;;;;;;;1.42;0.90;;;24.30;57.60;;;;;;10533792;28;20032;-51
2022/08/27 19:59:41;;;;;;;1.48;1.08;;;24.30;57.60;;;;;;10533489;28;20036;-52
2022/08/27 20:04:41;;;;;;;1.42;1.10;;;24.30;57.60;;;;;;10515392;28;20136;-50
2022/08/27 20:09:42;;;;;;;1.30;0.90;;;24.30;57.60;;;;;;10515320;28;20028;-50
2022/08/27 20:14:43;;;;;;;1.95;1.15;;;24.30;57.60;;;;;;10533156;28;20024;-51
2022/08/27 20:19:44;;;;;;;2.42;1.17;;;24.30;57.50;;;;;;10532703;28;20028;-51
2022/08/27 20:24:44;;;;;;;1.52;0.98;;;24.30;57.50;;;;;;10514576;28;20100;-49
2022/08/27 20:29:45;;;;;;;1.52;1.00;;;24.30;57.40;;;;;;10507057;28;20365;-49
2022/08/27 20:34:46;;;;;;;1.02;0.80;;;24.30;57.30;;;;;;10511789;28;20483;-50
2022/08/27 20:39:47;;;;;;;2.15;1.33;;;24.30;57.40;;;;;;10531625;28;20343;-50
2022/08/27 20:44:48;;;;;;;2.28;1.15;;;24.20;57.30;;;;;;10531636;28;20024;-52
2022/08/27 20:49:49;;;;;;;1.80;1.35;;;24.30;57.30;;;;;;10531504;28;20035;-52
2022/08/27 20:54:49;;;;;;;1.75;1.00;;;24.30;57.20;;;;;;10513222;28;20036;-50
2022/08/27 21:05:13;;;;;;;;;;;24.30;57.30;;;;;;10530805;28;20032;-52
2022/08/27 21:10:15;;;;;;;3.13;1.67;;;24.30;57.60;;;;;;10513209;28;19934;-51
2022/08/27 21:15:16;;;;;;;2.38;1.23;;;24.20;57.10;;;;;;10530439;28;20027;-51
2022/08/27 21:20:17;;;;;;;1.90;1.10;;;24.30;57.00;;;;;;10530409;28;20077;-49
2022/08/27 21:25:17;;;;;;;2.33;1.55;;;24.30;56.90;;;;;;10530463;28;20097;-52
2022/08/27 21:30:20;;;;;;;2.08;1.45;;;24.30;57.00;;;;;;10500401;28;20032;-50
2022/08/27 21:35:27;;;;;;;2.15;1.80;;;24.20;56.90;;;;;;10514927;28;20082;-49
2022/08/27 21:40:28;;;;;;;2.78;1.65;;;24.20;56.70;;;;;;10458367;28;20049;-50
2022/08/27 21:45:29;;;;;;;4.45;1.40;;;24.30;56.70;;;;;;10446792;28;20024;-50
2022/08/27 21:50:30;;;;;;;2.72;1.58;;;24.20;56.60;;;;;;10445262;28;20037;-51
2022/08/27 21:55:32;;;;;;;2.78;1.58;;;24.20;56.80;;;;;;10444970;28;20039;-49
2022/08/27 22:00:41;;;;;;;2.05;1.55;;;24.20;56.70;;;;;;10447059;28;20033;-50
2022/08/27 22:05:43;;;;;;;2.25;1.50;;;24.20;56.50;;;;;;10446376;28;20480;-50
2022/08/27 22:10:47;;;;;;;2.50;1.40;;;24.20;56.50;;;;;;10446236;28;20053;-51
2022/08/27 22:15:49;;;;;;;3.22;1.63;;;24.20;56.50;;;;;;10446328;28;20037;-52
2022/08/27 22:20:51;;;;;;;2.40;1.88;;;24.20;56.60;;;;;;10454102;28;20037;-52
2022/08/27 22:25:52;;;;;;;2.67;1.58;;;24.20;56.50;;;;;;10453666;28;20025;-52
2022/08/27 22:30:52;;;;;;;2.63;1.35;;;24.20;56.40;;;;;;10419619;28;20072;-49
2022/08/27 22:35:53;;;;;;;2.42;1.40;;;24.20;56.30;;;;;;10442463;28;20370;-49
2022/08/27 22:40:54;;;;;;;2.03;1.45;;;24.20;56.30;;;;;;10517297;28;20507;-49
2022/08/27 22:45:54;;;;;;;2.47;1.65;;;24.20;56.30;;;;;;10536238;28;20159;-50
2022/08/27 22:50:55;;;;;;;1.83;1.50;;;24.20;56.20;;;;;;10536106;28;20074;-50
2022/08/27 22:55:58;;;;;;;2.45;1.65;;;24.20;56.20;;;;;;10517916;28;20039;-52
2022/08/27 23:00:59;;;;;;;3.22;1.55;;;24.20;56.10;;;;;;10535719;28;20040;-52
2022/08/27 23:05:59;;;;;;;2.65;1.70;;;24.10;56.00;;;;;;10517375;28;20026;-48
2022/08/27 23:11:01;;;;;;;2.85;1.55;;;24.20;56.00;;;;;;10535313;28;20046;-53
2022/08/27 23:16:02;;;;;;;2.85;1.50;;;24.20;56.00;;;;;;10535381;28;20024;-50
2022/08/27 23:21:04;;;;;;;2.50;1.80;;;24.10;55.90;;;;;;10535883;28;20044;-48
2022/08/27 23:31:25;;;;;;;3.00;2.13;;;24.10;55.90;;;;;;10495409;28;20131;-50
2022/08/27 23:36:26;;;;;;;3.30;2.60;;;24.10;55.90;;;;;;10493408;28;20036;-52
2022/08/27 23:41:27;;;;;;;5.93;2.35;;;24.10;55.80;;;;;;10516106;28;20048;-51
2022/08/27 23:46:29;;;;;;;4.10;2.20;;;24.10;55.80;;;;;;10534200;28;20027;-51
2022/08/27 23:51:30;;;;;;;4.03;2.63;;;24.10;55.80;;;;;;10533783;28;20031;-50
2022/08/27 23:56:31;;;;;;;3.28;2.08;;;24.10;55.80;;;;;;10534360;28;20067;-50
